createdAt,value
2017-12-05T00:00:20.489Z,6.32
2017-12-05T00:02:48.763Z,6.19
2017-12-05T00:05:17.139Z,6.34
2017-12-05T00:07:45.361Z,6.42
2017-12-05T00:10:13.660Z,6.51
2017-12-05T00:12:41.935Z,6.60
2017-12-05T00:15:10.279Z,6.52
2017-12-05T00:17:38.610Z,6.61
2017-12-05T00:20:06.939Z,6.59
2017-12-05T00:22:35.208Z,6.61
2017-12-05T00:25:03.524Z,6.47
2017-12-05T00:27:31.794Z,6.66
2017-12-05T00:30:00.119Z,6.66
2017-12-05T00:32:28.419Z,6.70
2017-12-05T00:34:56.754Z,6.64
2017-12-05T00:37:24.999Z,6.65
2017-12-05T00:39:53.300Z,6.61
2017-12-05T00:42:21.619Z,6.60
2017-12-05T00:44:49.910Z,6.49
2017-12-05T00:47:18.198Z,6.33
2017-12-05T00:49:46.486Z,6.48
2017-12-05T00:52:14.810Z,6.46
2017-12-05T00:54:43.083Z,6.56
2017-12-05T00:57:11.390Z,6.57
2017-12-05T00:59:39.715Z,6.54
2017-12-05T01:02:08.001Z,6.54
2017-12-05T01:04:36.352Z,6.48
2017-12-05T01:07:05.457Z,6.46
2017-12-05T01:09:33.767Z,6.59
2017-12-05T01:12:02.060Z,6.69
2017-12-05T01:14:30.354Z,6.66
2017-12-05T01:16:58.625Z,6.65
2017-12-05T01:19:26.915Z,6.46
2017-12-05T01:21:55.196Z,6.56
2017-12-05T01:24:23.515Z,6.55
2017-12-05T01:26:51.788Z,6.58
2017-12-05T01:29:20.078Z,6.65
2017-12-05T01:31:48.386Z,6.68
2017-12-05T01:34:16.682Z,6.66
2017-12-05T01:36:45.062Z,6.72
2017-12-05T01:39:13.335Z,6.65
2017-12-05T01:41:41.640Z,6.54
2017-12-05T01:44:10.223Z,6.61
2017-12-05T01:46:38.534Z,6.68
2017-12-05T01:49:06.856Z,6.66
2017-12-05T01:51:35.151Z,6.58
2017-12-05T01:54:03.439Z,6.61
2017-12-05T01:56:31.743Z,6.69
2017-12-05T01:59:00.043Z,6.66
2017-12-05T02:01:28.353Z,6.71
2017-12-05T02:03:56.659Z,6.66
2017-12-05T02:06:24.974Z,6.69
2017-12-05T02:08:53.300Z,6.68
2017-12-05T02:11:21.611Z,6.68
2017-12-05T02:13:49.956Z,6.73
2017-12-05T02:16:18.258Z,6.73
2017-12-05T02:18:46.519Z,6.75
2017-12-05T02:21:14.893Z,6.79
2017-12-05T02:23:43.275Z,6.72
2017-12-05T02:26:11.885Z,6.74
2017-12-05T02:28:40.189Z,6.81
2017-12-05T02:31:08.464Z,6.82
2017-12-05T02:33:36.751Z,6.80
2017-12-05T02:36:05.036Z,6.78
2017-12-05T02:38:33.336Z,6.75
2017-12-05T02:41:09.531Z,6.77
2017-12-05T02:43:37.859Z,6.82
2017-12-05T02:46:06.179Z,6.82
2017-12-05T02:48:34.414Z,6.83
2017-12-05T02:51:02.739Z,6.73
2017-12-05T02:53:31.035Z,6.70
2017-12-05T02:55:59.315Z,6.60
2017-12-05T02:58:27.587Z,6.67
2017-12-05T03:00:55.885Z,6.68
2017-12-05T03:03:24.528Z,6.77
2017-12-05T03:05:52.846Z,6.78
2017-12-05T03:08:21.104Z,6.79
2017-12-05T03:10:49.406Z,6.69
2017-12-05T03:13:17.682Z,6.71
2017-12-05T03:15:46.007Z,6.72
2017-12-05T03:18:14.315Z,6.67
2017-12-05T03:20:42.611Z,6.67
2017-12-05T03:23:11.167Z,6.73
2017-12-05T03:25:39.479Z,6.74
2017-12-05T03:28:07.788Z,6.69
2017-12-05T03:30:36.064Z,6.73
2017-12-05T03:33:04.370Z,6.65
2017-12-05T03:35:32.640Z,6.77
2017-12-05T03:38:01.487Z,6.70
2017-12-05T03:40:29.751Z,6.69
2017-12-05T03:42:58.050Z,6.71
2017-12-05T03:45:26.370Z,6.76
2017-12-05T03:47:54.658Z,6.70
2017-12-05T03:50:22.973Z,6.71
2017-12-05T03:52:51.304Z,6.72
2017-12-05T03:55:19.576Z,6.66
2017-12-05T03:57:47.864Z,6.68
2017-12-05T04:00:16.152Z,6.71
2017-12-05T04:02:44.477Z,6.76
2017-12-05T04:05:12.785Z,6.77
2017-12-05T04:07:41.067Z,6.61
2017-12-05T04:10:09.384Z,6.60
2017-12-05T04:12:37.662Z,6.65
2017-12-05T04:15:05.983Z,6.73
2017-12-05T04:17:34.280Z,6.80
2017-12-05T04:20:02.616Z,6.80
2017-12-05T04:22:30.859Z,6.69
2017-12-05T04:24:59.180Z,6.49
2017-12-05T04:27:27.460Z,6.57
2017-12-05T04:29:55.751Z,6.41
2017-12-05T04:32:24.040Z,6.44
2017-12-05T04:34:52.328Z,6.41
2017-12-05T04:37:20.623Z,6.45
2017-12-05T04:39:48.935Z,6.25
2017-12-05T04:42:17.235Z,6.26
2017-12-05T04:44:45.507Z,6.26
2017-12-05T04:47:13.794Z,6.06
2017-12-05T04:49:42.077Z,6.22
2017-12-05T04:52:10.358Z,6.23
2017-12-05T04:54:38.630Z,6.20
2017-12-05T04:57:06.920Z,6.16
2017-12-05T04:59:35.183Z,6.08
2017-12-05T05:02:03.504Z,5.92
2017-12-05T05:04:31.827Z,6.03
2017-12-05T05:07:00.150Z,6.14
2017-12-05T05:09:28.504Z,6.26
2017-12-05T05:11:57.299Z,6.27
2017-12-05T05:14:25.604Z,6.20
2017-12-05T05:16:53.870Z,6.22
2017-12-05T05:19:22.220Z,6.26
2017-12-05T05:21:50.478Z,6.19
2017-12-05T05:24:18.800Z,6.19
2017-12-05T05:26:47.058Z,6.28
2017-12-05T05:29:15.457Z,6.26
2017-12-05T05:31:43.791Z,6.32
2017-12-05T05:34:12.045Z,6.37
2017-12-05T05:36:40.382Z,6.34
2017-12-05T05:39:08.631Z,6.30
2017-12-05T05:41:36.932Z,6.11
2017-12-05T05:44:05.507Z,5.99
2017-12-05T05:46:33.819Z,6.11
2017-12-05T05:49:02.096Z,6.28
2017-12-05T05:51:30.421Z,6.32
2017-12-05T05:53:58.683Z,6.36
2017-12-05T05:56:27.021Z,6.47
2017-12-05T05:58:55.688Z,6.43
2017-12-05T06:01:24.031Z,6.36
2017-12-05T06:03:52.401Z,6.34
2017-12-05T06:06:20.805Z,6.38
2017-12-05T06:08:49.179Z,6.31
2017-12-05T06:11:17.484Z,6.29
2017-12-05T06:13:45.812Z,6.24
2017-12-05T06:16:14.100Z,6.41
2017-12-05T06:18:42.392Z,6.43
2017-12-05T06:21:10.674Z,6.39
2017-12-05T06:23:39.185Z,6.43
2017-12-05T06:26:07.470Z,6.33
2017-12-05T06:28:35.699Z,6.40
2017-12-05T06:31:04.013Z,6.40
2017-12-05T06:33:32.292Z,6.33
2017-12-05T06:36:00.587Z,6.33
2017-12-05T06:38:28.859Z,6.47
2017-12-05T06:40:57.171Z,6.56
2017-12-05T06:43:25.410Z,6.55
2017-12-05T06:45:53.767Z,6.50
2017-12-05T06:48:22.051Z,6.54
2017-12-05T06:50:50.361Z,6.31
2017-12-05T06:53:18.674Z,6.37
2017-12-05T06:55:46.975Z,6.42
2017-12-05T06:58:15.264Z,6.33
2017-12-05T07:00:43.568Z,6.34
2017-12-05T07:03:11.873Z,6.45
2017-12-05T07:05:40.144Z,6.50
2017-12-05T07:08:08.440Z,6.49
2017-12-05T07:10:36.706Z,6.57
2017-12-05T07:13:04.992Z,6.55
2017-12-05T07:15:33.369Z,6.53
2017-12-05T07:18:01.632Z,6.50
2017-12-05T07:20:29.895Z,6.47
2017-12-05T07:22:58.198Z,6.45
2017-12-05T07:25:26.459Z,6.54
2017-12-05T07:27:54.958Z,6.55
2017-12-05T07:30:23.200Z,6.62
2017-12-05T07:32:51.503Z,6.40
2017-12-05T07:35:19.803Z,6.72
2017-12-05T07:37:48.115Z,6.57
2017-12-05T07:40:16.412Z,6.62
2017-12-05T07:42:44.693Z,6.62
2017-12-05T07:45:12.990Z,6.69
2017-12-05T07:47:41.265Z,6.64
2017-12-05T07:50:09.632Z,6.61
2017-12-05T07:52:37.900Z,6.59
2017-12-05T07:55:06.262Z,6.63
2017-12-05T07:57:34.575Z,6.73
2017-12-05T08:00:02.878Z,6.89
2017-12-05T08:02:31.154Z,6.95
2017-12-05T08:04:59.455Z,6.88
2017-12-05T08:07:27.744Z,6.91
2017-12-05T08:09:56.039Z,6.94
2017-12-05T08:12:24.403Z,6.96
2017-12-05T08:14:52.739Z,7.01
2017-12-05T08:17:21.041Z,7.09
2017-12-05T08:19:49.505Z,7.10
2017-12-05T08:22:17.777Z,7.04
2017-12-05T08:24:46.074Z,7.09
2017-12-05T08:27:14.374Z,7.20
2017-12-05T08:29:42.651Z,7.31
2017-12-05T08:32:11.046Z,7.23
2017-12-05T08:34:39.404Z,7.21
2017-12-05T08:37:08.615Z,7.28
2017-12-05T08:39:36.951Z,7.23
2017-12-05T08:42:05.263Z,7.19
2017-12-05T08:44:33.555Z,6.96
2017-12-05T08:47:02.534Z,7.06
2017-12-05T08:49:31.000Z,7.09
2017-12-05T08:51:59.251Z,7.19
2017-12-05T08:54:27.561Z,7.33
2017-12-05T08:56:55.827Z,7.14
2017-12-05T08:59:24.115Z,7.12
2017-12-05T09:01:52.426Z,7.06
2017-12-05T09:04:21.050Z,7.10
2017-12-05T09:06:49.397Z,7.21
2017-12-05T09:09:17.715Z,7.30
2017-12-05T09:11:46.006Z,7.36
2017-12-05T09:14:14.337Z,7.37
2017-12-05T09:16:42.629Z,7.39
2017-12-05T09:19:11.014Z,7.37
2017-12-05T09:21:39.334Z,7.33
2017-12-05T09:24:07.644Z,7.44
2017-12-05T09:26:35.947Z,7.52
2017-12-05T09:29:04.966Z,7.43
2017-12-05T09:31:33.276Z,7.29
2017-12-05T09:34:01.628Z,7.29
2017-12-05T09:36:29.870Z,7.07
2017-12-05T09:38:58.136Z,7.34
2017-12-05T09:41:26.787Z,7.42
2017-12-05T09:43:55.068Z,7.52
2017-12-05T09:46:23.372Z,7.47
2017-12-05T09:48:51.630Z,7.44
2017-12-05T09:51:19.923Z,7.47
2017-12-05T09:53:48.251Z,7.54
2017-12-05T09:56:16.621Z,7.50
2017-12-05T09:58:44.936Z,7.55
2017-12-05T10:01:13.175Z,7.10
2017-12-05T10:03:41.465Z,7.56
2017-12-05T10:06:09.731Z,7.52
2017-12-05T10:08:38.031Z,7.62
2017-12-05T10:11:06.295Z,7.64
2017-12-05T10:13:34.588Z,7.74
2017-12-05T10:16:02.905Z,7.88
2017-12-05T10:18:31.239Z,7.87
2017-12-05T10:20:59.592Z,7.92
2017-12-05T10:23:27.855Z,7.97
2017-12-05T10:25:56.191Z,7.92
2017-12-05T10:28:24.495Z,7.98
2017-12-05T10:30:52.824Z,7.79
2017-12-05T10:33:21.145Z,7.92
2017-12-05T10:35:49.457Z,7.91
2017-12-05T10:38:17.751Z,7.90
2017-12-05T10:40:46.064Z,7.94
2017-12-05T10:43:14.379Z,7.80
2017-12-05T10:45:42.681Z,7.92
2017-12-05T10:48:10.958Z,7.82
2017-12-05T10:50:39.269Z,7.88
2017-12-05T10:53:07.860Z,7.85
2017-12-05T10:55:36.149Z,7.75
2017-12-05T10:58:04.450Z,7.82
2017-12-05T11:00:32.719Z,7.88
2017-12-05T11:03:01.022Z,7.89
2017-12-05T11:05:29.302Z,7.85
2017-12-05T11:07:57.634Z,7.74
2017-12-05T11:10:25.926Z,7.83
2017-12-05T11:12:54.259Z,7.81
2017-12-05T11:15:22.537Z,7.71
2017-12-05T11:17:50.812Z,7.73
2017-12-05T11:20:19.119Z,7.63
2017-12-05T11:22:47.393Z,7.58
2017-12-05T11:25:15.712Z,7.61
2017-12-05T11:27:43.988Z,7.67
2017-12-05T11:30:12.278Z,7.67
2017-12-05T11:32:40.558Z,7.58
2017-12-05T11:35:08.880Z,7.87
2017-12-05T11:37:37.375Z,7.78
2017-12-05T11:40:05.742Z,7.96
2017-12-05T11:42:33.984Z,7.96
2017-12-05T11:45:02.294Z,7.99
2017-12-05T11:47:30.589Z,7.95
2017-12-05T11:49:58.922Z,7.91
2017-12-05T11:52:27.212Z,7.87
2017-12-05T11:54:55.668Z,7.89
2017-12-05T11:57:24.017Z,7.86
2017-12-05T11:59:52.300Z,7.99
2017-12-05T12:02:20.623Z,8.03
2017-12-05T12:04:48.907Z,7.97
2017-12-05T12:07:17.376Z,7.93
2017-12-05T12:09:45.655Z,7.94
2017-12-05T12:12:13.951Z,7.98
2017-12-05T12:14:43.161Z,8.08
2017-12-05T12:17:11.462Z,8.14
2017-12-05T12:19:40.177Z,7.95
2017-12-05T12:22:08.526Z,8.00
2017-12-05T12:24:36.847Z,8.03
2017-12-05T12:27:05.125Z,7.91
2017-12-05T12:29:33.395Z,7.84
2017-12-05T12:32:01.858Z,7.95
2017-12-05T12:34:30.104Z,8.13
2017-12-05T12:36:58.415Z,8.13
2017-12-05T12:39:26.734Z,7.94
2017-12-05T12:41:55.016Z,8.04
2017-12-05T12:44:23.318Z,8.18
2017-12-05T12:46:51.614Z,8.18
2017-12-05T12:49:19.895Z,8.24
2017-12-05T12:51:48.176Z,8.18
2017-12-05T12:54:16.824Z,8.17
2017-12-05T12:56:45.105Z,8.17
2017-12-05T12:59:13.447Z,8.21
2017-12-05T13:01:41.780Z,8.26
2017-12-05T13:04:10.980Z,8.13
2017-12-05T13:06:39.315Z,8.20
2017-12-05T13:09:08.534Z,8.24
2017-12-05T13:11:36.791Z,8.18
2017-12-05T13:14:05.155Z,8.19
2017-12-05T13:16:33.501Z,8.18
2017-12-05T13:19:01.852Z,8.22
2017-12-05T13:21:30.207Z,8.14
2017-12-05T13:23:58.514Z,8.23
2017-12-05T13:26:26.815Z,8.08
2017-12-05T13:28:55.188Z,8.13
2017-12-05T13:31:24.349Z,8.15
2017-12-05T13:33:52.655Z,8.15
2017-12-05T13:36:21.004Z,8.21
2017-12-05T13:38:49.294Z,8.27
2017-12-05T13:41:17.659Z,8.27
2017-12-05T13:43:46.000Z,8.29
2017-12-05T13:46:14.346Z,8.32
2017-12-05T13:48:42.686Z,8.34
2017-12-05T13:51:11.115Z,8.36
2017-12-05T13:53:39.409Z,8.30
2017-12-05T13:56:07.692Z,8.29
2017-12-05T13:58:37.033Z,8.21
2017-12-05T14:01:05.575Z,8.31
2017-12-05T14:03:33.955Z,8.37
2017-12-05T14:06:02.258Z,8.38
2017-12-05T14:08:30.560Z,8.39
2017-12-05T14:10:58.904Z,8.40
2017-12-05T14:13:27.292Z,8.23
2017-12-05T14:15:56.034Z,8.23
2017-12-05T14:18:24.328Z,8.30
2017-12-05T14:20:52.621Z,8.31
2017-12-05T14:23:20.990Z,8.17
2017-12-05T14:25:49.244Z,8.34
2017-12-05T14:28:18.212Z,8.34
2017-12-05T14:30:46.532Z,8.43
2017-12-05T14:33:14.819Z,8.42
2017-12-05T14:35:43.192Z,8.47
2017-12-05T14:38:12.491Z,8.28
2017-12-05T14:40:40.894Z,8.36
2017-12-05T14:43:09.192Z,8.44
2017-12-05T14:45:38.428Z,8.45
2017-12-05T14:48:06.805Z,8.45
2017-12-05T14:50:35.087Z,8.44
2017-12-05T14:53:03.384Z,8.44
2017-12-05T14:55:31.797Z,8.43
2017-12-05T14:58:00.302Z,8.46
2017-12-05T15:00:29.500Z,8.40
2017-12-05T15:02:57.789Z,8.35
2017-12-05T15:05:26.089Z,8.25
2017-12-05T15:07:55.021Z,8.35
2017-12-05T15:10:23.355Z,8.25
2017-12-05T15:12:51.689Z,8.22
2017-12-05T15:15:20.035Z,8.25
2017-12-05T15:17:48.331Z,8.35
2017-12-05T15:20:16.643Z,8.35
2017-12-05T15:22:44.947Z,8.36
2017-12-05T15:25:14.445Z,8.38
2017-12-05T15:27:42.740Z,8.33
2017-12-05T15:30:11.061Z,8.33
2017-12-05T15:32:39.428Z,8.40
2017-12-05T15:35:07.755Z,8.46
2017-12-05T15:37:36.076Z,8.47
2017-12-05T15:40:05.428Z,8.37
2017-12-05T15:42:33.751Z,8.29
2017-12-05T15:45:02.051Z,8.44
2017-12-05T15:47:30.363Z,8.46
2017-12-05T15:49:58.733Z,8.36
2017-12-05T15:52:26.990Z,8.32
2017-12-05T15:54:55.331Z,8.30
2017-12-05T15:57:23.820Z,8.32
2017-12-05T15:59:52.128Z,8.23
2017-12-05T16:02:20.986Z,8.11
2017-12-05T16:04:49.314Z,8.13
2017-12-05T16:07:17.637Z,8.21
2017-12-05T16:09:45.963Z,8.28
2017-12-05T16:12:14.299Z,8.37
2017-12-05T16:14:42.603Z,8.43
2017-12-05T16:17:10.888Z,8.47
2017-12-05T16:19:39.294Z,8.42
2017-12-05T16:22:07.587Z,8.37
2017-12-05T16:24:35.888Z,8.35
2017-12-05T16:27:04.863Z,8.33
2017-12-05T16:29:33.142Z,8.46
2017-12-05T16:32:01.422Z,8.38
2017-12-05T16:34:29.753Z,8.40
2017-12-05T16:36:58.034Z,8.36
2017-12-05T16:39:26.866Z,8.32
2017-12-05T16:41:55.180Z,8.20
2017-12-05T16:44:23.461Z,8.39
2017-12-05T16:46:51.811Z,8.37
2017-12-05T16:49:20.106Z,8.40
2017-12-05T16:51:48.408Z,8.34
2017-12-05T16:54:16.723Z,8.24
2017-12-05T16:56:45.055Z,8.19
2017-12-05T16:59:13.454Z,8.22
2017-12-05T17:01:41.791Z,8.29
2017-12-05T17:04:10.130Z,8.29
2017-12-05T17:06:38.709Z,8.26
2017-12-05T17:09:07.041Z,8.34
2017-12-05T17:11:35.334Z,8.17
2017-12-05T17:14:04.379Z,8.26
2017-12-05T17:16:32.976Z,8.21
2017-12-05T17:19:01.298Z,8.26
2017-12-05T17:21:29.651Z,8.18
2017-12-05T17:23:58.203Z,8.17
2017-12-05T17:26:26.463Z,8.10
2017-12-05T17:28:54.808Z,8.21
2017-12-05T17:31:23.104Z,8.16
2017-12-05T17:33:51.450Z,8.15
2017-12-05T17:36:19.782Z,8.23
2017-12-05T17:38:48.114Z,8.32
2017-12-05T17:41:16.550Z,8.35
2017-12-05T17:43:44.893Z,8.26
2017-12-05T17:46:13.172Z,8.30
2017-12-05T17:48:41.552Z,8.28
2017-12-05T17:51:09.861Z,8.22
2017-12-05T17:53:38.172Z,8.14
2017-12-05T17:56:06.618Z,8.22
2017-12-05T17:58:34.899Z,8.11
2017-12-05T18:01:03.311Z,8.17
2017-12-05T18:03:32.548Z,8.16
2017-12-05T18:06:00.839Z,8.25
2017-12-05T18:08:29.184Z,8.27
2017-12-05T18:10:57.449Z,8.21
2017-12-05T18:13:25.791Z,8.18
2017-12-05T18:15:54.143Z,8.13
2017-12-05T18:18:22.471Z,8.19
2017-12-05T18:20:50.791Z,8.17
2017-12-05T18:23:20.104Z,8.24
2017-12-05T18:25:48.368Z,8.24
2017-12-05T18:28:16.659Z,8.25
2017-12-05T18:30:45.017Z,8.19
2017-12-05T18:35:47.775Z,8.29
2017-12-05T18:38:16.061Z,8.24
2017-12-05T18:40:44.465Z,8.19
2017-12-05T18:43:12.746Z,8.35
2017-12-05T18:45:41.093Z,8.34
2017-12-05T18:48:09.384Z,8.39
2017-12-05T18:50:37.675Z,8.28
2017-12-05T18:53:05.955Z,8.32
2017-12-05T18:55:34.277Z,8.35
2017-12-05T18:58:02.599Z,8.19
2017-12-05T19:00:30.888Z,8.30
2017-12-05T19:02:59.276Z,8.40
2017-12-05T19:05:27.495Z,8.41
2017-12-05T19:07:55.796Z,8.52
2017-12-05T19:10:24.073Z,8.46
2017-12-05T19:12:52.383Z,8.40
2017-12-05T19:15:20.851Z,8.32
2017-12-05T19:17:49.648Z,8.39
2017-12-05T19:20:17.927Z,8.36
2017-12-05T19:22:46.437Z,8.35
2017-12-05T19:25:14.778Z,8.36
2017-12-05T19:27:43.091Z,8.33
2017-12-05T19:30:11.445Z,8.25
2017-12-05T19:32:39.719Z,8.21
2017-12-05T19:35:08.062Z,8.25
2017-12-05T19:37:36.422Z,8.20
2017-12-05T19:40:04.799Z,8.27
2017-12-05T19:42:33.055Z,8.32
2017-12-05T19:45:01.415Z,8.30
2017-12-05T19:47:29.701Z,8.23
2017-12-05T19:49:58.007Z,8.34
2017-12-05T19:52:26.309Z,8.43
2017-12-05T19:54:54.618Z,8.56
2017-12-05T19:57:23.136Z,8.57
2017-12-05T19:59:51.477Z,8.41
2017-12-05T20:02:19.840Z,8.48
2017-12-05T20:04:48.142Z,8.37
2017-12-05T20:07:16.448Z,8.27
2017-12-05T20:09:44.765Z,8.15
2017-12-05T20:12:13.060Z,8.08
2017-12-05T20:14:41.388Z,8.21
2017-12-05T20:17:09.803Z,8.15
2017-12-05T20:19:38.135Z,8.16
2017-12-05T20:22:06.469Z,8.04
2017-12-05T20:24:34.786Z,8.02
2017-12-05T20:27:03.117Z,8.14
2017-12-05T20:29:31.435Z,8.16
2017-12-05T20:31:59.766Z,8.16
2017-12-05T20:34:28.113Z,8.21
2017-12-05T20:36:56.407Z,8.21
2017-12-05T20:39:25.709Z,8.16
2017-12-05T20:41:54.055Z,8.02
2017-12-05T20:44:22.504Z,8.09
2017-12-05T20:46:50.858Z,8.16
2017-12-05T20:49:19.191Z,8.02
2017-12-05T20:51:47.479Z,8.08
2017-12-05T20:54:16.324Z,8.08
2017-12-05T20:56:44.799Z,8.06
2017-12-05T20:59:13.139Z,7.96
2017-12-05T21:01:41.427Z,7.92
2017-12-05T21:04:09.828Z,8.03
2017-12-05T21:06:38.170Z,8.02
2017-12-05T21:09:06.894Z,8.09
2017-12-05T21:11:35.181Z,7.97
2017-12-05T21:14:03.516Z,7.96
2017-12-05T21:16:31.851Z,7.90
2017-12-05T21:19:00.151Z,7.91
2017-12-05T21:21:28.450Z,8.04
2017-12-05T21:23:56.781Z,7.98
2017-12-05T21:26:25.094Z,7.91
2017-12-05T21:28:53.424Z,7.90
2017-12-05T21:31:21.709Z,7.86
2017-12-05T21:33:49.984Z,7.88
2017-12-05T21:36:18.340Z,7.96
2017-12-05T21:38:46.660Z,7.95
2017-12-05T21:41:14.994Z,7.99
2017-12-05T21:43:43.300Z,7.93
2017-12-05T21:46:11.619Z,7.93
2017-12-05T21:48:39.960Z,8.02
2017-12-05T21:51:08.843Z,7.91
2017-12-05T21:53:37.154Z,7.96
2017-12-05T21:56:05.749Z,8.02
2017-12-05T21:58:34.056Z,8.12
2017-12-05T22:01:02.339Z,7.92
2017-12-05T22:03:30.639Z,7.88
2017-12-05T22:05:58.917Z,7.91
2017-12-05T22:08:27.229Z,7.94
2017-12-05T22:10:55.507Z,7.93
2017-12-05T22:13:23.824Z,7.91
2017-12-05T22:15:52.159Z,7.96
2017-12-05T22:18:21.033Z,7.90
2017-12-05T22:20:49.315Z,8.02
2017-12-05T22:23:17.599Z,7.91
2017-12-05T22:25:45.940Z,7.97
2017-12-05T22:28:14.234Z,7.90
2017-12-05T22:30:42.548Z,7.94
2017-12-05T22:33:10.823Z,7.96
2017-12-05T22:35:39.751Z,7.95
2017-12-05T22:38:08.041Z,7.92
2017-12-05T22:40:36.351Z,7.89
2017-12-05T22:43:04.723Z,7.62
2017-12-05T22:45:33.024Z,7.65
2017-12-05T22:48:01.319Z,7.60
2017-12-05T22:50:29.587Z,7.67
2017-12-05T22:52:57.898Z,7.78
2017-12-05T22:55:26.198Z,7.64
2017-12-05T22:57:54.499Z,7.68
2017-12-05T23:00:22.776Z,7.62
2017-12-05T23:02:51.130Z,7.63
2017-12-05T23:05:19.399Z,7.62
2017-12-05T23:07:47.726Z,7.62
2017-12-05T23:10:15.991Z,7.56
2017-12-05T23:12:44.325Z,7.44
2017-12-05T23:15:12.998Z,7.44
2017-12-05T23:17:41.320Z,7.44
2017-12-05T23:20:09.657Z,7.46
2017-12-05T23:22:37.947Z,7.58
2017-12-05T23:25:07.094Z,7.43
2017-12-05T23:27:35.412Z,7.42
2017-12-05T23:30:03.699Z,7.43
2017-12-05T23:32:31.975Z,7.53
2017-12-05T23:35:00.327Z,7.49
2017-12-05T23:37:28.589Z,7.43
2017-12-05T23:39:57.004Z,7.52
2017-12-05T23:42:25.279Z,7.60
2017-12-05T23:44:53.559Z,7.65
2017-12-05T23:47:21.877Z,7.72
2017-12-05T23:49:50.131Z,7.69
2017-12-05T23:52:18.690Z,7.67
2017-12-05T23:54:47.022Z,7.48
2017-12-05T23:57:15.306Z,7.48
2017-12-05T23:59:43.585Z,7.46
